sensor_id;sensor_type;location;lat;lon;timestamp;P1;durP1;ratioP1;P2;durP2;ratioP2
58384;SDS011;44185;47.844;8.966;2022-09-06T00:00:21;8.37;;;4.90;;
58384;SDS011;44185;47.844;8.966;2022-09-06T00:02:46;8.68;;;4.35;;
58384;SDS011;44185;47.844;8.966;2022-09-06T00:05:12;8.77;;;4.90;;
58384;SDS011;44185;47.844;8.966;2022-09-06T00:07:39;8.27;;;4.20;;
58384;SDS011;44185;47.844;8.966;2022-09-06T00:10:05;9.05;;;4.72;;
58384;SDS011;44185;47.844;8.966;2022-09-06T00:12:31;8.18;;;4.65;;
58384;SDS011;44185;47.844;8.966;2022-09-06T00:14:57;7.72;;;4.78;;
58384;SDS011;44185;47.844;8.966;2022-09-06T00:17:23;7.35;;;4.50;;
58384;SDS011;44185;47.844;8.966;2022-09-06T00:19:48;6.82;;;4.30;;
58384;SDS011;44185;47.844;8.966;2022-09-06T00:22:14;7.28;;;4.55;;
58384;SDS011;44185;47.844;8.966;2022-09-06T00:24:41;7.75;;;4.47;;
58384;SDS011;44185;47.844;8.966;2022-09-06T00:27:06;7.60;;;4.40;;
58384;SDS011;44185;47.844;8.966;2022-09-06T00:29:32;9.73;;;5.05;;
58384;SDS011;44185;47.844;8.966;2022-09-06T00:31:58;9.55;;;5.07;;
58384;SDS011;44185;47.844;8.966;2022-09-06T00:34:23;7.70;;;4.55;;
58384;SDS011;44185;47.844;8.966;2022-09-06T00:36:49;7.63;;;4.90;;
58384;SDS011;44185;47.844;8.966;2022-09-06T00:39:15;8.30;;;4.97;;
58384;SDS011;44185;47.844;8.966;2022-09-06T00:41:41;9.93;;;5.22;;
58384;SDS011;44185;47.844;8.966;2022-09-06T00:44:07;7.38;;;5.00;;
58384;SDS011;44185;47.844;8.966;2022-09-06T00:46:33;8.75;;;4.65;;
58384;SDS011;44185;47.844;8.966;2022-09-06T00:49:02;8.20;;;4.93;;
58384;SDS011;44185;47.844;8.966;2022-09-06T00:51:31;8.00;;;4.80;;
58384;SDS011;44185;47.844;8.966;2022-09-06T00:53:58;9.23;;;5.32;;
58384;SDS011;44185;47.844;8.966;2022-09-06T00:56:27;7.20;;;4.70;;
58384;SDS011;44185;47.844;8.966;2022-09-06T00:58:54;8.32;;;4.82;;
58384;SDS011;44185;47.844;8.966;2022-09-06T01:01:20;6.97;;;4.30;;
58384;SDS011;44185;47.844;8.966;2022-09-06T01:03:45;8.48;;;5.30;;
58384;SDS011;44185;47.844;8.966;2022-09-06T01:06:15;7.43;;;4.80;;
58384;SDS011;44185;47.844;8.966;2022-09-06T01:08:50;8.38;;;5.00;;
58384;SDS011;44185;47.844;8.966;2022-09-06T01:11:27;9.73;;;4.53;;
58384;SDS011;44185;47.844;8.966;2022-09-06T01:14:09;8.48;;;4.50;;
58384;SDS011;44185;47.844;8.966;2022-09-06T01:16:44;9.32;;;4.85;;
58384;SDS011;44185;47.844;8.966;2022-09-06T01:22:20;7.95;;;4.45;;
58384;SDS011;44185;47.844;8.966;2022-09-06T01:25:10;6.60;;;4.45;;
58384;SDS011;44185;47.844;8.966;2022-09-06T01:28:00;7.53;;;4.30;;
58384;SDS011;44185;47.844;8.966;2022-09-06T01:30:43;6.53;;;4.22;;
58384;SDS011;44185;47.844;8.966;2022-09-06T01:33:15;8.30;;;4.47;;
58384;SDS011;44185;47.844;8.966;2022-09-06T01:35:48;7.10;;;4.65;;
58384;SDS011;44185;47.844;8.966;2022-09-06T01:38:18;9.23;;;4.85;;
58384;SDS011;44185;47.844;8.966;2022-09-06T01:40:43;8.40;;;4.35;;
58384;SDS011;44185;47.844;8.966;2022-09-06T01:43:11;9.30;;;4.28;;
58384;SDS011;44185;47.844;8.966;2022-09-06T01:45:44;6.82;;;4.22;;
58384;SDS011;44185;47.844;8.966;2022-09-06T01:48:23;8.57;;;4.65;;
58384;SDS011;44185;47.844;8.966;2022-09-06T01:51:02;9.23;;;4.57;;
58384;SDS011;44185;47.844;8.966;2022-09-06T01:53:43;8.55;;;4.75;;
58384;SDS011;44185;47.844;8.966;2022-09-06T01:56:21;9.15;;;4.75;;
58384;SDS011;44185;47.844;8.966;2022-09-06T01:59:07;6.28;;;4.40;;
58384;SDS011;44185;47.844;8.966;2022-09-06T02:01:44;7.40;;;4.68;;
58384;SDS011;44185;47.844;8.966;2022-09-06T02:04:19;6.80;;;4.07;;
58384;SDS011;44185;47.844;8.966;2022-09-06T02:06:49;8.43;;;4.60;;
58384;SDS011;44185;47.844;8.966;2022-09-06T02:09:20;8.13;;;4.72;;
58384;SDS011;44185;47.844;8.966;2022-09-06T02:11:48;7.85;;;4.53;;
58384;SDS011;44185;47.844;8.966;2022-09-06T02:14:21;8.10;;;4.50;;
58384;SDS011;44185;47.844;8.966;2022-09-06T02:16:57;8.65;;;4.63;;
58384;SDS011;44185;47.844;8.966;2022-09-06T02:19:26;8.50;;;4.80;;
58384;SDS011;44185;47.844;8.966;2022-09-06T02:21:55;9.02;;;5.55;;
58384;SDS011;44185;47.844;8.966;2022-09-06T02:24:22;10.23;;;5.15;;
58384;SDS011;44185;47.844;8.966;2022-09-06T02:26:53;9.70;;;4.63;;
58384;SDS011;44185;47.844;8.966;2022-09-06T02:29:20;7.35;;;4.97;;
58384;SDS011;44185;47.844;8.966;2022-09-06T02:31:46;8.45;;;4.57;;
58384;SDS011;44185;47.844;8.966;2022-09-06T02:34:15;8.10;;;4.78;;
58384;SDS011;44185;47.844;8.966;2022-09-06T02:36:42;9.20;;;5.03;;
58384;SDS011;44185;47.844;8.966;2022-09-06T02:39:08;8.18;;;5.32;;
58384;SDS011;44185;47.844;8.966;2022-09-06T02:41:34;11.07;;;5.05;;
58384;SDS011;44185;47.844;8.966;2022-09-06T02:44:00;8.95;;;5.40;;
58384;SDS011;44185;47.844;8.966;2022-09-06T02:46:28;8.40;;;5.07;;
58384;SDS011;44185;47.844;8.966;2022-09-06T02:48:53;10.93;;;5.47;;
58384;SDS011;44185;47.844;8.966;2022-09-06T02:51:19;9.32;;;5.38;;
58384;SDS011;44185;47.844;8.966;2022-09-06T02:53:44;11.77;;;5.53;;
58384;SDS011;44185;47.844;8.966;2022-09-06T02:56:10;10.80;;;5.47;;
58384;SDS011;44185;47.844;8.966;2022-09-06T02:58:36;9.48;;;5.30;;
58384;SDS011;44185;47.844;8.966;2022-09-06T03:01:01;8.20;;;4.88;;
58384;SDS011;44185;47.844;8.966;2022-09-06T03:03:28;9.23;;;5.07;;
58384;SDS011;44185;47.844;8.966;2022-09-06T03:05:53;10.73;;;5.32;;
58384;SDS011;44185;47.844;8.966;2022-09-06T03:08:20;9.18;;;5.10;;
58384;SDS011;44185;47.844;8.966;2022-09-06T03:10:47;9.13;;;5.28;;
58384;SDS011;44185;47.844;8.966;2022-09-06T03:13:13;7.60;;;5.05;;
58384;SDS011;44185;47.844;8.966;2022-09-06T03:15:38;8.35;;;4.95;;
58384;SDS011;44185;47.844;8.966;2022-09-06T03:18:04;9.27;;;5.40;;
58384;SDS011;44185;47.844;8.966;2022-09-06T03:20:30;9.48;;;5.20;;
58384;SDS011;44185;47.844;8.966;2022-09-06T03:22:56;7.93;;;4.90;;
58384;SDS011;44185;47.844;8.966;2022-09-06T03:25:22;9.18;;;5.00;;
58384;SDS011;44185;47.844;8.966;2022-09-06T03:27:47;8.25;;;4.97;;
58384;SDS011;44185;47.844;8.966;2022-09-06T03:30:13;10.32;;;5.25;;
58384;SDS011;44185;47.844;8.966;2022-09-06T03:32:38;8.73;;;5.10;;
58384;SDS011;44185;47.844;8.966;2022-09-06T03:35:04;7.43;;;4.97;;
58384;SDS011;44185;47.844;8.966;2022-09-06T03:37:31;8.98;;;5.15;;
58384;SDS011;44185;47.844;8.966;2022-09-06T03:39:57;8.02;;;4.65;;
58384;SDS011;44185;47.844;8.966;2022-09-06T03:42:22;10.95;;;5.85;;
58384;SDS011;44185;47.844;8.966;2022-09-06T03:44:48;10.05;;;5.00;;
58384;SDS011;44185;47.844;8.966;2022-09-06T03:47:13;11.10;;;5.10;;
58384;SDS011;44185;47.844;8.966;2022-09-06T03:49:39;9.80;;;5.28;;
58384;SDS011;44185;47.844;8.966;2022-09-06T03:52:04;11.15;;;5.35;;
58384;SDS011;44185;47.844;8.966;2022-09-06T03:54:31;9.23;;;5.45;;
58384;SDS011;44185;47.844;8.966;2022-09-06T03:56:57;8.77;;;4.88;;
58384;SDS011;44185;47.844;8.966;2022-09-06T03:59:22;8.45;;;4.93;;
58384;SDS011;44185;47.844;8.966;2022-09-06T04:01:47;9.30;;;5.43;;
58384;SDS011;44185;47.844;8.966;2022-09-06T04:04:13;7.50;;;5.20;;
58384;SDS011;44185;47.844;8.966;2022-09-06T04:06:38;8.57;;;4.68;;
58384;SDS011;44185;47.844;8.966;2022-09-06T04:09:04;7.85;;;4.53;;
58384;SDS011;44185;47.844;8.966;2022-09-06T04:11:31;8.45;;;4.93;;
58384;SDS011;44185;47.844;8.966;2022-09-06T04:13:56;8.48;;;5.45;;
58384;SDS011;44185;47.844;8.966;2022-09-06T04:16:22;9.52;;;4.90;;
58384;SDS011;44185;47.844;8.966;2022-09-06T04:18:47;10.43;;;5.80;;
58384;SDS011;44185;47.844;8.966;2022-09-06T04:21:13;8.40;;;5.03;;
58384;SDS011;44185;47.844;8.966;2022-09-06T04:23:38;10.80;;;5.55;;
58384;SDS011;44185;47.844;8.966;2022-09-06T04:26:04;10.80;;;5.70;;
58384;SDS011;44185;47.844;8.966;2022-09-06T04:28:31;10.05;;;5.40;;
58384;SDS011;44185;47.844;8.966;2022-09-06T04:30:57;10.02;;;5.25;;
58384;SDS011;44185;47.844;8.966;2022-09-06T04:33:24;9.77;;;5.60;;
58384;SDS011;44185;47.844;8.966;2022-09-06T04:35:50;13.60;;;5.93;;
58384;SDS011;44185;47.844;8.966;2022-09-06T04:38:16;14.18;;;6.13;;
58384;SDS011;44185;47.844;8.966;2022-09-06T04:40:41;19.85;;;6.95;;
58384;SDS011;44185;47.844;8.966;2022-09-06T04:43:07;18.02;;;7.13;;
58384;SDS011;44185;47.844;8.966;2022-09-06T04:45:34;20.17;;;7.32;;
58384;SDS011;44185;47.844;8.966;2022-09-06T04:47:59;14.20;;;6.60;;
58384;SDS011;44185;47.844;8.966;2022-09-06T04:50:24;13.63;;;5.75;;
58384;SDS011;44185;47.844;8.966;2022-09-06T04:52:50;13.73;;;6.43;;
58384;SDS011;44185;47.844;8.966;2022-09-06T04:55:15;16.35;;;6.28;;
58384;SDS011;44185;47.844;8.966;2022-09-06T04:57:41;16.33;;;5.75;;
58384;SDS011;44185;47.844;8.966;2022-09-06T05:00:07;9.68;;;6.05;;
58384;SDS011;44185;47.844;8.966;2022-09-06T05:02:35;9.40;;;5.50;;
58384;SDS011;44185;47.844;8.966;2022-09-06T05:05:00;8.52;;;5.22;;
58384;SDS011;44185;47.844;8.966;2022-09-06T05:07:26;12.15;;;5.72;;
58384;SDS011;44185;47.844;8.966;2022-09-06T05:09:52;9.63;;;5.35;;
58384;SDS011;44185;47.844;8.966;2022-09-06T05:12:17;9.45;;;5.95;;
58384;SDS011;44185;47.844;8.966;2022-09-06T05:14:43;12.68;;;6.25;;
58384;SDS011;44185;47.844;8.966;2022-09-06T05:17:08;9.65;;;5.13;;
58384;SDS011;44185;47.844;8.966;2022-09-06T05:19:35;11.70;;;6.00;;
58384;SDS011;44185;47.844;8.966;2022-09-06T05:22:00;9.43;;;5.55;;
58384;SDS011;44185;47.844;8.966;2022-09-06T05:24:26;8.05;;;5.13;;
58384;SDS011;44185;47.844;8.966;2022-09-06T05:26:52;15.45;;;5.50;;
58384;SDS011;44185;47.844;8.966;2022-09-06T05:29:17;10.70;;;5.20;;
58384;SDS011;44185;47.844;8.966;2022-09-06T05:31:43;8.52;;;5.32;;
58384;SDS011;44185;47.844;8.966;2022-09-06T05:34:08;10.63;;;5.53;;
58384;SDS011;44185;47.844;8.966;2022-09-06T05:36:35;11.32;;;6.28;;
58384;SDS011;44185;47.844;8.966;2022-09-06T05:39:00;12.10;;;5.90;;
58384;SDS011;44185;47.844;8.966;2022-09-06T05:41:26;10.07;;;5.45;;
58384;SDS011;44185;47.844;8.966;2022-09-06T05:43:52;12.80;;;5.88;;
58384;SDS011;44185;47.844;8.966;2022-09-06T05:46:17;10.75;;;6.05;;
58384;SDS011;44185;47.844;8.966;2022-09-06T05:48:43;14.48;;;6.68;;
58384;SDS011;44185;47.844;8.966;2022-09-06T05:51:15;14.35;;;7.28;;
58384;SDS011;44185;47.844;8.966;2022-09-06T05:53:43;15.90;;;7.43;;
58384;SDS011;44185;47.844;8.966;2022-09-06T05:56:10;17.95;;;7.68;;
58384;SDS011;44185;47.844;8.966;2022-09-06T05:58:37;10.52;;;6.32;;
58384;SDS011;44185;47.844;8.966;2022-09-06T06:01:03;12.70;;;6.97;;
58384;SDS011;44185;47.844;8.966;2022-09-06T06:03:29;12.50;;;6.90;;
58384;SDS011;44185;47.844;8.966;2022-09-06T06:05:55;15.20;;;7.28;;
58384;SDS011;44185;47.844;8.966;2022-09-06T06:08:20;18.08;;;8.45;;
58384;SDS011;44185;47.844;8.966;2022-09-06T06:10:47;14.55;;;7.55;;
58384;SDS011;44185;47.844;8.966;2022-09-06T06:13:13;13.98;;;7.50;;
58384;SDS011;44185;47.844;8.966;2022-09-06T06:15:38;14.73;;;7.05;;
58384;SDS011;44185;47.844;8.966;2022-09-06T06:18:04;13.20;;;7.13;;
58384;SDS011;44185;47.844;8.966;2022-09-06T06:20:29;12.05;;;6.95;;
58384;SDS011;44185;47.844;8.966;2022-09-06T06:22:55;12.02;;;6.78;;
58384;SDS011;44185;47.844;8.966;2022-09-06T06:25:20;15.98;;;7.72;;
58384;SDS011;44185;47.844;8.966;2022-09-06T06:27:47;14.43;;;6.88;;
58384;SDS011;44185;47.844;8.966;2022-09-06T06:30:12;13.32;;;7.38;;
58384;SDS011;44185;47.844;8.966;2022-09-06T06:32:38;13.38;;;7.82;;
58384;SDS011;44185;47.844;8.966;2022-09-06T06:35:04;14.65;;;8.20;;
58384;SDS011;44185;47.844;8.966;2022-09-06T06:37:31;14.70;;;8.05;;
58384;SDS011;44185;47.844;8.966;2022-09-06T06:39:57;15.40;;;8.77;;
58384;SDS011;44185;47.844;8.966;2022-09-06T06:42:22;15.82;;;8.50;;
58384;SDS011;44185;47.844;8.966;2022-09-06T06:44:49;15.45;;;8.55;;
58384;SDS011;44185;47.844;8.966;2022-09-06T06:47:14;19.75;;;11.25;;
58384;SDS011;44185;47.844;8.966;2022-09-06T06:49:40;22.08;;;11.13;;
58384;SDS011;44185;47.844;8.966;2022-09-06T06:52:05;20.83;;;11.43;;
58384;SDS011;44185;47.844;8.966;2022-09-06T06:54:31;24.50;;;11.93;;
58384;SDS011;44185;47.844;8.966;2022-09-06T06:56:56;24.38;;;11.38;;
58384;SDS011;44185;47.844;8.966;2022-09-06T06:59:22;23.25;;;12.07;;
58384;SDS011;44185;47.844;8.966;2022-09-06T07:01:49;24.90;;;15.55;;
58384;SDS011;44185;47.844;8.966;2022-09-06T07:04:14;26.95;;;15.20;;
58384;SDS011;44185;47.844;8.966;2022-09-06T07:06:44;27.00;;;14.85;;
58384;SDS011;44185;47.844;8.966;2022-09-06T07:09:11;15.27;;;9.82;;
58384;SDS011;44185;47.844;8.966;2022-09-06T07:11:37;17.08;;;8.32;;
58384;SDS011;44185;47.844;8.966;2022-09-06T07:14:02;15.87;;;8.17;;
58384;SDS011;44185;47.844;8.966;2022-09-06T07:16:28;13.93;;;7.10;;
58384;SDS011;44185;47.844;8.966;2022-09-06T07:18:55;9.20;;;6.28;;
58384;SDS011;44185;47.844;8.966;2022-09-06T07:21:21;8.48;;;5.40;;
58384;SDS011;44185;47.844;8.966;2022-09-06T07:23:47;6.72;;;4.30;;
58384;SDS011;44185;47.844;8.966;2022-09-06T07:26:13;11.85;;;5.40;;
58384;SDS011;44185;47.844;8.966;2022-09-06T07:28:40;9.43;;;5.43;;
58384;SDS011;44185;47.844;8.966;2022-09-06T07:31:05;8.70;;;4.80;;
58384;SDS011;44185;47.844;8.966;2022-09-06T07:33:30;6.93;;;4.30;;
58384;SDS011;44185;47.844;8.966;2022-09-06T07:36:00;6.38;;;3.95;;
58384;SDS011;44185;47.844;8.966;2022-09-06T07:38:30;8.35;;;3.95;;
58384;SDS011;44185;47.844;8.966;2022-09-06T07:41:01;6.47;;;3.63;;
58384;SDS011;44185;47.844;8.966;2022-09-06T07:43:34;8.57;;;3.80;;
58384;SDS011;44185;47.844;8.966;2022-09-06T07:46:00;7.40;;;3.92;;
58384;SDS011;44185;47.844;8.966;2022-09-06T07:48:28;6.90;;;3.78;;
58384;SDS011;44185;47.844;8.966;2022-09-06T07:50:53;8.48;;;4.32;;
58384;SDS011;44185;47.844;8.966;2022-09-06T07:53:20;7.43;;;4.45;;
58384;SDS011;44185;47.844;8.966;2022-09-06T07:55:46;8.32;;;4.05;;
58384;SDS011;44185;47.844;8.966;2022-09-06T07:58:11;6.15;;;3.60;;
58384;SDS011;44185;47.844;8.966;2022-09-06T08:00:37;4.50;;;3.58;;
58384;SDS011;44185;47.844;8.966;2022-09-06T08:03:02;5.67;;;3.57;;
58384;SDS011;44185;47.844;8.966;2022-09-06T08:05:28;7.70;;;3.78;;
58384;SDS011;44185;47.844;8.966;2022-09-06T08:07:53;6.70;;;3.30;;
58384;SDS011;44185;47.844;8.966;2022-09-06T08:10:20;5.13;;;3.35;;
58384;SDS011;44185;47.844;8.966;2022-09-06T08:12:46;5.65;;;3.60;;
58384;SDS011;44185;47.844;8.966;2022-09-06T08:15:11;7.18;;;3.67;;
58384;SDS011;44185;47.844;8.966;2022-09-06T08:17:37;8.90;;;3.53;;
58384;SDS011;44185;47.844;8.966;2022-09-06T08:20:02;6.65;;;3.60;;
58384;SDS011;44185;47.844;8.966;2022-09-06T08:22:30;7.22;;;3.90;;
58384;SDS011;44185;47.844;8.966;2022-09-06T08:24:56;6.60;;;3.35;;
58384;SDS011;44185;47.844;8.966;2022-09-06T08:27:23;6.53;;;3.70;;
58384;SDS011;44185;47.844;8.966;2022-09-06T08:29:49;8.20;;;4.07;;
58384;SDS011;44185;47.844;8.966;2022-09-06T08:32:14;6.68;;;4.13;;
58384;SDS011;44185;47.844;8.966;2022-09-06T08:34:40;7.47;;;3.67;;
58384;SDS011;44185;47.844;8.966;2022-09-06T08:37:05;7.10;;;3.75;;
58384;SDS011;44185;47.844;8.966;2022-09-06T08:39:30;7.10;;;3.90;;
58384;SDS011;44185;47.844;8.966;2022-09-06T08:41:58;5.78;;;3.95;;
58384;SDS011;44185;47.844;8.966;2022-09-06T08:44:28;6.57;;;3.83;;
58384;SDS011;44185;47.844;8.966;2022-09-06T08:46:57;9.73;;;4.10;;
58384;SDS011;44185;47.844;8.966;2022-09-06T08:49:28;6.53;;;3.67;;
58384;SDS011;44185;47.844;8.966;2022-09-06T08:57:19;7.00;;;3.72;;
58384;SDS011;44185;47.844;8.966;2022-09-06T08:59:58;9.20;;;4.22;;
58384;SDS011;44185;47.844;8.966;2022-09-06T09:02:26;8.30;;;4.15;;
58384;SDS011;44185;47.844;8.966;2022-09-06T09:04:59;6.45;;;4.18;;
58384;SDS011;44185;47.844;8.966;2022-09-06T09:07:33;7.15;;;4.20;;
58384;SDS011;44185;47.844;8.966;2022-09-06T09:10:07;10.98;;;4.40;;
58384;SDS011;44185;47.844;8.966;2022-09-06T09:12:37;9.05;;;4.40;;
58384;SDS011;44185;47.844;8.966;2022-09-06T09:15:12;8.13;;;4.60;;
58384;SDS011;44185;47.844;8.966;2022-09-06T09:17:39;8.55;;;5.10;;
58384;SDS011;44185;47.844;8.966;2022-09-06T09:20:05;9.93;;;4.90;;
58384;SDS011;44185;47.844;8.966;2022-09-06T09:22:30;12.07;;;5.20;;
58384;SDS011;44185;47.844;8.966;2022-09-06T09:24:56;9.73;;;5.15;;
58384;SDS011;44185;47.844;8.966;2022-09-06T09:27:24;10.20;;;5.35;;
58384;SDS011;44185;47.844;8.966;2022-09-06T09:29:58;7.50;;;4.63;;
58384;SDS011;44185;47.844;8.966;2022-09-06T09:32:32;8.43;;;4.35;;
58384;SDS011;44185;47.844;8.966;2022-09-06T09:35:18;8.82;;;4.70;;
58384;SDS011;44185;47.844;8.966;2022-09-06T09:37:55;9.23;;;4.68;;
58384;SDS011;44185;47.844;8.966;2022-09-06T09:40:29;9.53;;;4.67;;
58384;SDS011;44185;47.844;8.966;2022-09-06T09:43:08;6.78;;;3.95;;
58384;SDS011;44185;47.844;8.966;2022-09-06T09:45:37;12.10;;;4.80;;
58384;SDS011;44185;47.844;8.966;2022-09-06T09:48:16;10.20;;;4.78;;
58384;SDS011;44185;47.844;8.966;2022-09-06T09:50:48;8.48;;;4.57;;
58384;SDS011;44185;47.844;8.966;2022-09-06T09:53:14;12.25;;;4.47;;
58384;SDS011;44185;47.844;8.966;2022-09-06T09:55:41;9.45;;;4.78;;
58384;SDS011;44185;47.844;8.966;2022-09-06T09:58:07;12.88;;;4.80;;
58384;SDS011;44185;47.844;8.966;2022-09-06T10:00:45;9.18;;;4.53;;
58384;SDS011;44185;47.844;8.966;2022-09-06T10:03:11;8.10;;;4.47;;
58384;SDS011;44185;47.844;8.966;2022-09-06T10:05:39;11.57;;;4.70;;
58384;SDS011;44185;47.844;8.966;2022-09-06T10:08:08;8.13;;;4.90;;
58384;SDS011;44185;47.844;8.966;2022-09-06T10:10:37;7.40;;;4.33;;
58384;SDS011;44185;47.844;8.966;2022-09-06T10:13:05;10.13;;;4.50;;
58384;SDS011;44185;47.844;8.966;2022-09-06T10:15:32;9.43;;;4.45;;
58384;SDS011;44185;47.844;8.966;2022-09-06T10:17:59;9.05;;;4.22;;
58384;SDS011;44185;47.844;8.966;2022-09-06T10:20:42;8.55;;;4.55;;
58384;SDS011;44185;47.844;8.966;2022-09-06T10:23:15;10.80;;;4.57;;
58384;SDS011;44185;47.844;8.966;2022-09-06T10:25:46;11.25;;;4.47;;
58384;SDS011;44185;47.844;8.966;2022-09-06T10:28:22;7.95;;;4.25;;
58384;SDS011;44185;47.844;8.966;2022-09-06T10:34:02;8.52;;;4.32;;
58384;SDS011;44185;47.844;8.966;2022-09-06T10:36:42;9.70;;;4.47;;
58384;SDS011;44185;47.844;8.966;2022-09-06T10:39:16;10.75;;;4.40;;
58384;SDS011;44185;47.844;8.966;2022-09-06T10:41:56;9.82;;;4.55;;
58384;SDS011;44185;47.844;8.966;2022-09-06T10:44:34;9.93;;;4.70;;
58384;SDS011;44185;47.844;8.966;2022-09-06T10:47:13;13.40;;;4.72;;
58384;SDS011;44185;47.844;8.966;2022-09-06T10:49:39;9.18;;;4.28;;
58384;SDS011;44185;47.844;8.966;2022-09-06T10:52:10;11.95;;;5.15;;
58384;SDS011;44185;47.844;8.966;2022-09-06T10:54:41;9.68;;;4.68;;
58384;SDS011;44185;47.844;8.966;2022-09-06T10:57:09;11.35;;;4.75;;
58384;SDS011;44185;47.844;8.966;2022-09-06T10:59:41;9.38;;;4.50;;
58384;SDS011;44185;47.844;8.966;2022-09-06T11:02:15;6.53;;;3.83;;
58384;SDS011;44185;47.844;8.966;2022-09-06T11:04:54;10.70;;;4.85;;
58384;SDS011;44185;47.844;8.966;2022-09-06T11:07:28;11.82;;;4.30;;
58384;SDS011;44185;47.844;8.966;2022-09-06T11:09:56;9.18;;;4.43;;
58384;SDS011;44185;47.844;8.966;2022-09-06T11:12:26;9.27;;;4.35;;
58384;SDS011;44185;47.844;8.966;2022-09-06T11:14:59;8.90;;;4.32;;
58384;SDS011;44185;47.844;8.966;2022-09-06T11:17:28;9.27;;;4.63;;
58384;SDS011;44185;47.844;8.966;2022-09-06T11:20:00;10.77;;;4.43;;
58384;SDS011;44185;47.844;8.966;2022-09-06T11:25:22;8.05;;;4.22;;
58384;SDS011;44185;47.844;8.966;2022-09-06T11:28:00;9.00;;;4.45;;
58384;SDS011;44185;47.844;8.966;2022-09-06T11:30:31;6.90;;;4.55;;
58384;SDS011;44185;47.844;8.966;2022-09-06T11:33:05;10.68;;;4.40;;
58384;SDS011;44185;47.844;8.966;2022-09-06T11:38:21;9.40;;;4.47;;
58384;SDS011;44185;47.844;8.966;2022-09-06T11:40:51;6.47;;;4.30;;
58384;SDS011;44185;47.844;8.966;2022-09-06T11:46:07;10.07;;;4.60;;
58384;SDS011;44185;47.844;8.966;2022-09-06T11:48:47;10.35;;;4.43;;
58384;SDS011;44185;47.844;8.966;2022-09-06T11:51:23;6.75;;;4.18;;
58384;SDS011;44185;47.844;8.966;2022-09-06T11:54:02;10.38;;;4.57;;
58384;SDS011;44185;47.844;8.966;2022-09-06T11:56:41;10.75;;;4.50;;
58384;SDS011;44185;47.844;8.966;2022-09-06T11:59:19;9.55;;;4.50;;
58384;SDS011;44185;47.844;8.966;2022-09-06T12:02:00;9.98;;;4.22;;
58384;SDS011;44185;47.844;8.966;2022-09-06T12:07:33;11.32;;;4.88;;
58384;SDS011;44185;47.844;8.966;2022-09-06T12:10:01;11.35;;;4.68;;
58384;SDS011;44185;47.844;8.966;2022-09-06T12:13:18;13.50;;;5.00;;
58384;SDS011;44185;47.844;8.966;2022-09-06T12:16:04;12.60;;;4.63;;
58384;SDS011;44185;47.844;8.966;2022-09-06T12:21:35;14.07;;;5.10;;
58384;SDS011;44185;47.844;8.966;2022-09-06T12:24:06;15.38;;;5.47;;
58384;SDS011;44185;47.844;8.966;2022-09-06T12:26:44;11.52;;;5.68;;
58384;SDS011;44185;47.844;8.966;2022-09-06T12:29:12;14.38;;;5.75;;
58384;SDS011;44185;47.844;8.966;2022-09-06T12:31:38;10.18;;;5.43;;
58384;SDS011;44185;47.844;8.966;2022-09-06T12:34:05;13.20;;;5.72;;
58384;SDS011;44185;47.844;8.966;2022-09-06T12:36:33;12.73;;;6.50;;
58384;SDS011;44185;47.844;8.966;2022-09-06T12:38:59;13.02;;;6.30;;
58384;SDS011;44185;47.844;8.966;2022-09-06T12:41:28;12.43;;;6.53;;
58384;SDS011;44185;47.844;8.966;2022-09-06T12:43:56;12.77;;;6.28;;
58384;SDS011;44185;47.844;8.966;2022-09-06T12:46:23;14.00;;;5.85;;
58384;SDS011;44185;47.844;8.966;2022-09-06T12:49:00;15.05;;;6.20;;
58384;SDS011;44185;47.844;8.966;2022-09-06T12:51:28;13.63;;;6.30;;
58384;SDS011;44185;47.844;8.966;2022-09-06T12:53:55;14.93;;;6.43;;
58384;SDS011;44185;47.844;8.966;2022-09-06T12:56:23;15.45;;;6.35;;
58384;SDS011;44185;47.844;8.966;2022-09-06T12:58:49;14.35;;;6.07;;
58384;SDS011;44185;47.844;8.966;2022-09-06T13:01:18;14.65;;;5.85;;
58384;SDS011;44185;47.844;8.966;2022-09-06T13:03:50;14.77;;;5.63;;
58384;SDS011;44185;47.844;8.966;2022-09-06T13:06:22;12.63;;;5.60;;
58384;SDS011;44185;47.844;8.966;2022-09-06T13:08:50;12.23;;;5.88;;
58384;SDS011;44185;47.844;8.966;2022-09-06T13:11:19;14.70;;;6.25;;
58384;SDS011;44185;47.844;8.966;2022-09-06T13:13:50;13.32;;;6.28;;
58384;SDS011;44185;47.844;8.966;2022-09-06T13:16:19;11.60;;;5.85;;
58384;SDS011;44185;47.844;8.966;2022-09-06T13:18:46;14.30;;;7.30;;
58384;SDS011;44185;47.844;8.966;2022-09-06T13:21:22;10.65;;;5.40;;
58384;SDS011;44185;47.844;8.966;2022-09-06T13:23:49;15.60;;;6.03;;
58384;SDS011;44185;47.844;8.966;2022-09-06T13:26:30;16.75;;;6.30;;
58384;SDS011;44185;47.844;8.966;2022-09-06T13:29:07;12.73;;;5.32;;
58384;SDS011;44185;47.844;8.966;2022-09-06T13:31:34;10.18;;;5.70;;
58384;SDS011;44185;47.844;8.966;2022-09-06T13:34:00;10.30;;;5.55;;
58384;SDS011;44185;47.844;8.966;2022-09-06T13:36:26;9.63;;;5.03;;
58384;SDS011;44185;47.844;8.966;2022-09-06T13:38:53;8.35;;;4.82;;
58384;SDS011;44185;47.844;8.966;2022-09-06T13:41:37;11.38;;;5.50;;
58384;SDS011;44185;47.844;8.966;2022-09-06T13:44:04;5.63;;;3.80;;
58384;SDS011;44185;47.844;8.966;2022-09-06T13:46:41;6.75;;;3.50;;
58384;SDS011;44185;47.844;8.966;2022-09-06T13:49:07;9.68;;;3.72;;
58384;SDS011;44185;47.844;8.966;2022-09-06T13:51:32;4.05;;;2.70;;
58384;SDS011;44185;47.844;8.966;2022-09-06T13:54:02;10.82;;;3.30;;
58384;SDS011;44185;47.844;8.966;2022-09-06T13:56:28;3.72;;;2.88;;
58384;SDS011;44185;47.844;8.966;2022-09-06T13:58:53;7.50;;;3.10;;
58384;SDS011;44185;47.844;8.966;2022-09-06T14:01:19;6.15;;;2.70;;
58384;SDS011;44185;47.844;8.966;2022-09-06T14:03:46;7.30;;;2.55;;
58384;SDS011;44185;47.844;8.966;2022-09-06T14:06:13;4.20;;;2.28;;
58384;SDS011;44185;47.844;8.966;2022-09-06T14:08:40;5.13;;;2.58;;
58384;SDS011;44185;47.844;8.966;2022-09-06T14:11:05;4.57;;;2.63;;
58384;SDS011;44185;47.844;8.966;2022-09-06T14:13:31;7.05;;;2.80;;
58384;SDS011;44185;47.844;8.966;2022-09-06T14:15:56;5.68;;;2.70;;
58384;SDS011;44185;47.844;8.966;2022-09-06T14:18:22;7.10;;;2.15;;
58384;SDS011;44185;47.844;8.966;2022-09-06T14:20:51;4.72;;;2.65;;
58384;SDS011;44185;47.844;8.966;2022-09-06T14:23:17;3.22;;;2.42;;
58384;SDS011;44185;47.844;8.966;2022-09-06T14:25:43;2.40;;;2.20;;
58384;SDS011;44185;47.844;8.966;2022-09-06T14:28:08;4.32;;;2.60;;
58384;SDS011;44185;47.844;8.966;2022-09-06T14:30:34;3.88;;;2.45;;
58384;SDS011;44185;47.844;8.966;2022-09-06T14:32:59;7.88;;;2.50;;
58384;SDS011;44185;47.844;8.966;2022-09-06T14:35:25;5.25;;;2.80;;
58384;SDS011;44185;47.844;8.966;2022-09-06T14:37:52;9.32;;;2.63;;
58384;SDS011;44185;47.844;8.966;2022-09-06T14:40:17;6.82;;;2.78;;
58384;SDS011;44185;47.844;8.966;2022-09-06T14:42:43;5.72;;;2.70;;
58384;SDS011;44185;47.844;8.966;2022-09-06T14:45:08;3.65;;;2.53;;
58384;SDS011;44185;47.844;8.966;2022-09-06T14:47:34;3.42;;;2.40;;
58384;SDS011;44185;47.844;8.966;2022-09-06T14:49:59;3.58;;;2.35;;
58384;SDS011;44185;47.844;8.966;2022-09-06T14:52:25;7.30;;;2.85;;
58384;SDS011;44185;47.844;8.966;2022-09-06T14:54:52;4.57;;;2.88;;
58384;SDS011;44185;47.844;8.966;2022-09-06T14:57:17;7.05;;;2.60;;
58384;SDS011;44185;47.844;8.966;2022-09-06T14:59:43;4.50;;;2.45;;
58384;SDS011;44185;47.844;8.966;2022-09-06T15:02:08;4.75;;;2.35;;
58384;SDS011;44185;47.844;8.966;2022-09-06T15:04:33;4.28;;;2.40;;
58384;SDS011;44185;47.844;8.966;2022-09-06T15:06:59;6.50;;;2.95;;
58384;SDS011;44185;47.844;8.966;2022-09-06T15:09:24;5.63;;;2.28;;
58384;SDS011;44185;47.844;8.966;2022-09-06T15:11:52;4.13;;;2.22;;
58384;SDS011;44185;47.844;8.966;2022-09-06T15:14:18;3.47;;;2.38;;
58384;SDS011;44185;47.844;8.966;2022-09-06T15:16:44;5.85;;;2.40;;